sensor_id;sensor_type;location;lat;lon;timestamp;P1;durP1;ratioP1;P2;durP2;ratioP2
32872;SDS011;19224;52.462;16.898;2023-02-11T00:00:25;48.10;;;21.80;;
32872;SDS011;19224;52.462;16.898;2023-02-11T00:02:57;46.77;;;21.20;;
32872;SDS011;19224;52.462;16.898;2023-02-11T00:05:27;47.15;;;20.97;;
32872;SDS011;19224;52.462;16.898;2023-02-11T00:07:57;45.67;;;20.62;;
32872;SDS011;19224;52.462;16.898;2023-02-11T00:10:28;51.58;;;20.97;;
32872;SDS011;19224;52.462;16.898;2023-02-11T00:12:58;47.57;;;20.77;;
32872;SDS011;19224;52.462;16.898;2023-02-11T00:15:28;49.23;;;20.52;;
32872;SDS011;19224;52.462;16.898;2023-02-11T00:17:59;47.07;;;21.63;;
32872;SDS011;19224;52.462;16.898;2023-02-11T00:20:29;54.00;;;21.43;;
32872;SDS011;19224;52.462;16.898;2023-02-11T00:22:59;43.20;;;19.85;;
32872;SDS011;19224;52.462;16.898;2023-02-11T00:25:30;50.37;;;21.77;;
32872;SDS011;19224;52.462;16.898;2023-02-11T00:28:00;47.67;;;21.17;;
32872;SDS011;19224;52.462;16.898;2023-02-11T00:30:30;48.53;;;21.47;;
32872;SDS011;19224;52.462;16.898;2023-02-11T00:33:11;45.95;;;21.68;;
32872;SDS011;19224;52.462;16.898;2023-02-11T00:35:36;40.65;;;19.75;;
32872;SDS011;19224;52.462;16.898;2023-02-11T00:38:06;46.10;;;20.87;;
32872;SDS011;19224;52.462;16.898;2023-02-11T00:40:37;43.87;;;20.17;;
32872;SDS011;19224;52.462;16.898;2023-02-11T00:43:07;40.90;;;20.07;;
32872;SDS011;19224;52.462;16.898;2023-02-11T00:45:37;47.38;;;20.77;;
32872;SDS011;19224;52.462;16.898;2023-02-11T00:48:11;39.55;;;19.98;;
32872;SDS011;19224;52.462;16.898;2023-02-11T00:50:41;45.97;;;21.43;;
32872;SDS011;19224;52.462;16.898;2023-02-11T00:53:14;42.57;;;20.37;;
32872;SDS011;19224;52.462;16.898;2023-02-11T00:55:45;43.40;;;19.80;;
32872;SDS011;19224;52.462;16.898;2023-02-11T00:58:15;39.53;;;19.60;;
32872;SDS011;19224;52.462;16.898;2023-02-11T01:00:45;44.53;;;20.40;;
32872;SDS011;19224;52.462;16.898;2023-02-11T01:03:16;46.70;;;20.90;;
32872;SDS011;19224;52.462;16.898;2023-02-11T01:05:47;44.27;;;20.47;;
32872;SDS011;19224;52.462;16.898;2023-02-11T01:08:17;42.80;;;19.97;;
32872;SDS011;19224;52.462;16.898;2023-02-11T01:10:56;46.20;;;21.15;;
32872;SDS011;19224;52.462;16.898;2023-02-11T01:13:29;40.70;;;19.45;;
32872;SDS011;19224;52.462;16.898;2023-02-11T01:16:05;44.27;;;21.80;;
32872;SDS011;19224;52.462;16.898;2023-02-11T01:18:37;46.73;;;20.63;;
32872;SDS011;19224;52.462;16.898;2023-02-11T01:21:10;44.30;;;19.93;;
32872;SDS011;19224;52.462;16.898;2023-02-11T01:23:43;39.37;;;20.43;;
32872;SDS011;19224;52.462;16.898;2023-02-11T01:26:13;48.03;;;21.23;;
32872;SDS011;19224;52.462;16.898;2023-02-11T01:28:43;45.80;;;20.90;;
32872;SDS011;19224;52.462;16.898;2023-02-11T01:31:14;46.93;;;20.47;;
32872;SDS011;19224;52.462;16.898;2023-02-11T01:33:44;48.17;;;21.10;;
32872;SDS011;19224;52.462;16.898;2023-02-11T01:36:15;39.90;;;19.93;;
32872;SDS011;19224;52.462;16.898;2023-02-11T01:38:46;40.70;;;19.93;;
32872;SDS011;19224;52.462;16.898;2023-02-11T01:41:16;42.23;;;20.07;;
32872;SDS011;19224;52.462;16.898;2023-02-11T01:43:47;48.43;;;20.37;;
32872;SDS011;19224;52.462;16.898;2023-02-11T01:46:29;41.43;;;19.70;;
32872;SDS011;19224;52.462;16.898;2023-02-11T01:49:09;45.40;;;20.23;;
32872;SDS011;19224;52.462;16.898;2023-02-11T01:51:46;40.97;;;20.90;;
32872;SDS011;19224;52.462;16.898;2023-02-11T01:54:21;48.13;;;21.90;;
32872;SDS011;19224;52.462;16.898;2023-02-11T01:57:12;44.57;;;19.63;;
32872;SDS011;19224;52.462;16.898;2023-02-11T02:03:07;44.77;;;21.50;;
32872;SDS011;19224;52.462;16.898;2023-02-11T02:05:56;42.30;;;20.47;;
32872;SDS011;19224;52.462;16.898;2023-02-11T02:08:50;43.87;;;20.43;;
32872;SDS011;19224;52.462;16.898;2023-02-11T02:11:28;46.87;;;21.63;;
32872;SDS011;19224;52.462;16.898;2023-02-11T02:13:59;46.02;;;21.05;;
32872;SDS011;19224;52.462;16.898;2023-02-11T02:16:34;48.20;;;21.20;;
32872;SDS011;19224;52.462;16.898;2023-02-11T02:22:27;41.77;;;20.80;;
32872;SDS011;19224;52.462;16.898;2023-02-11T02:34:36;48.23;;;22.30;;
32872;SDS011;19224;52.462;16.898;2023-02-11T02:37:30;46.37;;;21.60;;
32872;SDS011;19224;52.462;16.898;2023-02-11T02:40:20;45.03;;;21.30;;
32872;SDS011;19224;52.462;16.898;2023-02-11T02:42:53;43.40;;;21.17;;
32872;SDS011;19224;52.462;16.898;2023-02-11T02:45:25;43.83;;;20.93;;
32872;SDS011;19224;52.462;16.898;2023-02-11T02:47:55;43.87;;;22.13;;
32872;SDS011;19224;52.462;16.898;2023-02-11T02:50:27;44.35;;;21.75;;
32872;SDS011;19224;52.462;16.898;2023-02-11T02:58:53;45.43;;;22.10;;
32872;SDS011;19224;52.462;16.898;2023-02-11T03:01:56;45.38;;;22.27;;
32872;SDS011;19224;52.462;16.898;2023-02-11T03:04:56;45.57;;;21.63;;
32872;SDS011;19224;52.462;16.898;2023-02-11T03:13:01;45.07;;;21.73;;
32872;SDS011;19224;52.462;16.898;2023-02-11T03:15:36;49.27;;;21.97;;
32872;SDS011;19224;52.462;16.898;2023-02-11T03:18:11;40.12;;;20.82;;
32872;SDS011;19224;52.462;16.898;2023-02-11T03:20:46;44.23;;;21.42;;
32872;SDS011;19224;52.462;16.898;2023-02-11T03:23:25;45.20;;;22.42;;
32872;SDS011;19224;52.462;16.898;2023-02-11T03:31:55;40.30;;;20.63;;
32872;SDS011;19224;52.462;16.898;2023-02-11T03:34:46;46.92;;;21.73;;
32872;SDS011;19224;52.462;16.898;2023-02-11T03:37:35;49.45;;;22.00;;
32872;SDS011;19224;52.462;16.898;2023-02-11T03:40:11;46.23;;;22.50;;
32872;SDS011;19224;52.462;16.898;2023-02-11T03:42:52;44.93;;;22.95;;
32872;SDS011;19224;52.462;16.898;2023-02-11T03:45:28;47.93;;;23.40;;
32872;SDS011;19224;52.462;16.898;2023-02-11T03:48:01;48.83;;;22.58;;
32872;SDS011;19224;52.462;16.898;2023-02-11T03:50:35;47.93;;;23.02;;
32872;SDS011;19224;52.462;16.898;2023-02-11T03:53:07;49.88;;;22.82;;
32872;SDS011;19224;52.462;16.898;2023-02-11T03:55:39;45.10;;;21.82;;
32872;SDS011;19224;52.462;16.898;2023-02-11T03:58:11;45.23;;;23.20;;
32872;SDS011;19224;52.462;16.898;2023-02-11T04:00:44;45.38;;;22.67;;
32872;SDS011;19224;52.462;16.898;2023-02-11T04:03:14;44.53;;;22.10;;
32872;SDS011;19224;52.462;16.898;2023-02-11T04:05:45;44.20;;;21.90;;
32872;SDS011;19224;52.462;16.898;2023-02-11T04:08:16;49.00;;;22.43;;
32872;SDS011;19224;52.462;16.898;2023-02-11T04:10:47;53.85;;;24.87;;
32872;SDS011;19224;52.462;16.898;2023-02-11T04:13:17;46.57;;;22.87;;
32872;SDS011;19224;52.462;16.898;2023-02-11T04:15:48;51.80;;;23.80;;
32872;SDS011;19224;52.462;16.898;2023-02-11T04:18:18;48.40;;;23.87;;
32872;SDS011;19224;52.462;16.898;2023-02-11T04:20:49;49.13;;;22.45;;
32872;SDS011;19224;52.462;16.898;2023-02-11T04:23:20;46.23;;;21.87;;
32872;SDS011;19224;52.462;16.898;2023-02-11T04:25:50;46.08;;;23.65;;
32872;SDS011;19224;52.462;16.898;2023-02-11T04:28:21;48.00;;;23.30;;
32872;SDS011;19224;52.462;16.898;2023-02-11T04:30:53;48.73;;;22.73;;
32872;SDS011;19224;52.462;16.898;2023-02-11T04:33:24;51.08;;;25.52;;
32872;SDS011;19224;52.462;16.898;2023-02-11T04:35:55;48.83;;;24.53;;
32872;SDS011;19224;52.462;16.898;2023-02-11T04:38:25;50.60;;;23.93;;
32872;SDS011;19224;52.462;16.898;2023-02-11T04:40:56;51.03;;;24.87;;
32872;SDS011;19224;52.462;16.898;2023-02-11T04:43:27;52.50;;;23.60;;
32872;SDS011;19224;52.462;16.898;2023-02-11T04:45:57;49.60;;;23.83;;
32872;SDS011;19224;52.462;16.898;2023-02-11T04:48:28;49.35;;;22.90;;
32872;SDS011;19224;52.462;16.898;2023-02-11T04:50:59;50.75;;;24.20;;
32872;SDS011;19224;52.462;16.898;2023-02-11T04:53:30;57.20;;;25.07;;
32872;SDS011;19224;52.462;16.898;2023-02-11T04:56:01;50.73;;;24.50;;
32872;SDS011;19224;52.462;16.898;2023-02-11T04:58:32;48.03;;;23.40;;
32872;SDS011;19224;52.462;16.898;2023-02-11T05:01:07;52.43;;;24.80;;
32872;SDS011;19224;52.462;16.898;2023-02-11T05:03:41;50.47;;;25.23;;
32872;SDS011;19224;52.462;16.898;2023-02-11T05:06:12;55.20;;;24.33;;
32872;SDS011;19224;52.462;16.898;2023-02-11T05:08:43;49.60;;;24.40;;
32872;SDS011;19224;52.462;16.898;2023-02-11T05:11:16;49.37;;;23.90;;
32872;SDS011;19224;52.462;16.898;2023-02-11T05:13:49;54.43;;;25.83;;
32872;SDS011;19224;52.462;16.898;2023-02-11T05:16:20;53.27;;;25.47;;
32872;SDS011;19224;52.462;16.898;2023-02-11T05:18:51;57.20;;;25.57;;
32872;SDS011;19224;52.462;16.898;2023-02-11T05:21:22;60.07;;;25.80;;
32872;SDS011;19224;52.462;16.898;2023-02-11T05:23:53;53.30;;;25.57;;
32872;SDS011;19224;52.462;16.898;2023-02-11T05:26:23;51.23;;;24.77;;
32872;SDS011;19224;52.462;16.898;2023-02-11T05:28:55;55.30;;;25.67;;
32872;SDS011;19224;52.462;16.898;2023-02-11T05:31:25;50.13;;;24.20;;
32872;SDS011;19224;52.462;16.898;2023-02-11T05:33:56;51.97;;;25.57;;
32872;SDS011;19224;52.462;16.898;2023-02-11T05:36:26;55.83;;;25.25;;
32872;SDS011;19224;52.462;16.898;2023-02-11T05:38:57;56.43;;;25.70;;
32872;SDS011;19224;52.462;16.898;2023-02-11T05:41:28;51.70;;;24.53;;
32872;SDS011;19224;52.462;16.898;2023-02-11T05:43:58;51.60;;;25.50;;
32872;SDS011;19224;52.462;16.898;2023-02-11T05:46:29;58.00;;;24.57;;
32872;SDS011;19224;52.462;16.898;2023-02-11T05:49:00;61.23;;;26.27;;
32872;SDS011;19224;52.462;16.898;2023-02-11T05:51:30;56.73;;;26.80;;
32872;SDS011;19224;52.462;16.898;2023-02-11T05:54:01;60.97;;;29.10;;
32872;SDS011;19224;52.462;16.898;2023-02-11T05:56:32;47.57;;;23.50;;
32872;SDS011;19224;52.462;16.898;2023-02-11T05:59:02;52.00;;;25.48;;
32872;SDS011;19224;52.462;16.898;2023-02-11T06:01:33;60.15;;;26.35;;
32872;SDS011;19224;52.462;16.898;2023-02-11T06:04:04;56.05;;;27.07;;
32872;SDS011;19224;52.462;16.898;2023-02-11T06:06:34;56.45;;;27.02;;
32872;SDS011;19224;52.462;16.898;2023-02-11T06:09:05;59.33;;;26.95;;
32872;SDS011;19224;52.462;16.898;2023-02-11T06:11:37;55.63;;;27.30;;
32872;SDS011;19224;52.462;16.898;2023-02-11T06:14:08;56.27;;;26.63;;
32872;SDS011;19224;52.462;16.898;2023-02-11T06:16:38;70.30;;;31.45;;
32872;SDS011;19224;52.462;16.898;2023-02-11T06:19:09;71.87;;;32.40;;
32872;SDS011;19224;52.462;16.898;2023-02-11T06:21:40;59.37;;;29.60;;
32872;SDS011;19224;52.462;16.898;2023-02-11T06:24:11;57.00;;;27.17;;
32872;SDS011;19224;52.462;16.898;2023-02-11T06:26:42;54.63;;;25.68;;
32872;SDS011;19224;52.462;16.898;2023-02-11T06:29:13;51.47;;;26.67;;
32872;SDS011;19224;52.462;16.898;2023-02-11T06:31:44;63.90;;;29.10;;
32872;SDS011;19224;52.462;16.898;2023-02-11T06:34:14;59.47;;;27.87;;
32872;SDS011;19224;52.462;16.898;2023-02-11T06:36:45;61.02;;;27.73;;
32872;SDS011;19224;52.462;16.898;2023-02-11T06:39:15;60.05;;;27.65;;
32872;SDS011;19224;52.462;16.898;2023-02-11T06:41:46;64.23;;;29.00;;
32872;SDS011;19224;52.462;16.898;2023-02-11T06:44:16;56.17;;;27.33;;
32872;SDS011;19224;52.462;16.898;2023-02-11T06:46:47;61.08;;;28.15;;
32872;SDS011;19224;52.462;16.898;2023-02-11T06:49:17;57.30;;;27.60;;
32872;SDS011;19224;52.462;16.898;2023-02-11T06:51:48;64.67;;;28.50;;
32872;SDS011;19224;52.462;16.898;2023-02-11T06:54:19;60.28;;;27.77;;
32872;SDS011;19224;52.462;16.898;2023-02-11T06:56:49;60.15;;;26.97;;
32872;SDS011;19224;52.462;16.898;2023-02-11T06:59:20;57.55;;;28.10;;
32872;SDS011;19224;52.462;16.898;2023-02-11T07:01:50;58.55;;;28.98;;
32872;SDS011;19224;52.462;16.898;2023-02-11T07:04:21;58.68;;;29.40;;
32872;SDS011;19224;52.462;16.898;2023-02-11T07:06:51;58.20;;;27.90;;
32872;SDS011;19224;52.462;16.898;2023-02-11T07:09:22;56.53;;;28.27;;
32872;SDS011;19224;52.462;16.898;2023-02-11T07:11:52;59.67;;;28.57;;
32872;SDS011;19224;52.462;16.898;2023-02-11T07:14:23;58.78;;;27.17;;
32872;SDS011;19224;52.462;16.898;2023-02-11T07:16:53;59.35;;;28.47;;
32872;SDS011;19224;52.462;16.898;2023-02-11T07:19:24;64.95;;;28.12;;
32872;SDS011;19224;52.462;16.898;2023-02-11T07:21:55;62.08;;;27.02;;
32872;SDS011;19224;52.462;16.898;2023-02-11T07:24:25;59.05;;;29.27;;
32872;SDS011;19224;52.462;16.898;2023-02-11T07:26:56;60.07;;;28.50;;
32872;SDS011;19224;52.462;16.898;2023-02-11T07:29:30;66.77;;;29.95;;
32872;SDS011;19224;52.462;16.898;2023-02-11T07:32:01;62.60;;;28.70;;
32872;SDS011;19224;52.462;16.898;2023-02-11T07:34:40;59.93;;;28.20;;
32872;SDS011;19224;52.462;16.898;2023-02-11T07:37:06;59.05;;;28.95;;
32872;SDS011;19224;52.462;16.898;2023-02-11T07:39:37;65.37;;;28.87;;
32872;SDS011;19224;52.462;16.898;2023-02-11T07:42:08;67.37;;;30.35;;
32872;SDS011;19224;52.462;16.898;2023-02-11T07:44:38;63.30;;;28.75;;
32872;SDS011;19224;52.462;16.898;2023-02-11T07:47:09;65.47;;;29.60;;
32872;SDS011;19224;52.462;16.898;2023-02-11T07:49:39;60.15;;;27.27;;
32872;SDS011;19224;52.462;16.898;2023-02-11T07:52:09;63.92;;;28.75;;
32872;SDS011;19224;52.462;16.898;2023-02-11T07:54:40;60.03;;;27.58;;
32872;SDS011;19224;52.462;16.898;2023-02-11T07:57:10;60.98;;;27.70;;
32872;SDS011;19224;52.462;16.898;2023-02-11T07:59:40;61.88;;;28.80;;
32872;SDS011;19224;52.462;16.898;2023-02-11T08:02:11;56.23;;;28.02;;
32872;SDS011;19224;52.462;16.898;2023-02-11T08:04:41;56.93;;;27.00;;
32872;SDS011;19224;52.462;16.898;2023-02-11T08:07:15;58.67;;;30.40;;
32872;SDS011;19224;52.462;16.898;2023-02-11T08:09:46;62.10;;;29.07;;
32872;SDS011;19224;52.462;16.898;2023-02-11T08:12:16;66.02;;;29.25;;
32872;SDS011;19224;52.462;16.898;2023-02-11T08:14:46;60.17;;;27.20;;
32872;SDS011;19224;52.462;16.898;2023-02-11T08:17:16;62.43;;;30.48;;
32872;SDS011;19224;52.462;16.898;2023-02-11T08:19:47;62.45;;;30.55;;
32872;SDS011;19224;52.462;16.898;2023-02-11T08:22:17;64.47;;;29.37;;
32872;SDS011;19224;52.462;16.898;2023-02-11T08:24:47;62.80;;;29.18;;
32872;SDS011;19224;52.462;16.898;2023-02-11T08:27:18;60.70;;;29.02;;
32872;SDS011;19224;52.462;16.898;2023-02-11T08:29:48;63.80;;;28.85;;
32872;SDS011;19224;52.462;16.898;2023-02-11T08:32:19;53.68;;;28.15;;
32872;SDS011;19224;52.462;16.898;2023-02-11T08:34:52;56.55;;;27.58;;
32872;SDS011;19224;52.462;16.898;2023-02-11T08:37:22;61.40;;;29.52;;
32872;SDS011;19224;52.462;16.898;2023-02-11T08:39:53;58.98;;;29.05;;
32872;SDS011;19224;52.462;16.898;2023-02-11T08:42:23;59.35;;;29.25;;
32872;SDS011;19224;52.462;16.898;2023-02-11T08:44:53;56.48;;;27.65;;
32872;SDS011;19224;52.462;16.898;2023-02-11T08:47:23;53.73;;;26.90;;
32872;SDS011;19224;52.462;16.898;2023-02-11T08:49:54;55.23;;;26.82;;
32872;SDS011;19224;52.462;16.898;2023-02-11T08:52:25;54.27;;;27.35;;
32872;SDS011;19224;52.462;16.898;2023-02-11T08:54:55;55.20;;;28.60;;
32872;SDS011;19224;52.462;16.898;2023-02-11T08:57:25;56.45;;;27.50;;
32872;SDS011;19224;52.462;16.898;2023-02-11T08:59:57;55.98;;;26.95;;
32872;SDS011;19224;52.462;16.898;2023-02-11T09:02:28;59.38;;;28.17;;
32872;SDS011;19224;52.462;16.898;2023-02-11T09:04:58;56.18;;;26.82;;
32872;SDS011;19224;52.462;16.898;2023-02-11T09:07:29;56.10;;;26.93;;
32872;SDS011;19224;52.462;16.898;2023-02-11T09:09:59;55.70;;;26.75;;
32872;SDS011;19224;52.462;16.898;2023-02-11T09:12:29;51.98;;;26.82;;
32872;SDS011;19224;52.462;16.898;2023-02-11T09:15:00;57.40;;;27.73;;
32872;SDS011;19224;52.462;16.898;2023-02-11T09:17:30;55.83;;;27.15;;
32872;SDS011;19224;52.462;16.898;2023-02-11T09:20:00;61.75;;;29.07;;
32872;SDS011;19224;52.462;16.898;2023-02-11T09:22:31;56.45;;;27.73;;
32872;SDS011;19224;52.462;16.898;2023-02-11T09:25:02;52.80;;;28.07;;
32872;SDS011;19224;52.462;16.898;2023-02-11T09:27:32;56.92;;;27.77;;
32872;SDS011;19224;52.462;16.898;2023-02-11T09:30:02;59.70;;;27.95;;
32872;SDS011;19224;52.462;16.898;2023-02-11T09:32:34;56.13;;;27.67;;
32872;SDS011;19224;52.462;16.898;2023-02-11T09:35:04;58.48;;;27.80;;
32872;SDS011;19224;52.462;16.898;2023-02-11T09:37:35;54.58;;;28.00;;
32872;SDS011;19224;52.462;16.898;2023-02-11T09:40:07;51.23;;;27.85;;
32872;SDS011;19224;52.462;16.898;2023-02-11T09:45:21;56.13;;;27.77;;
32872;SDS011;19224;52.462;16.898;2023-02-11T09:47:56;60.60;;;29.65;;
32872;SDS011;19224;52.462;16.898;2023-02-11T09:50:34;63.83;;;30.88;;
32872;SDS011;19224;52.462;16.898;2023-02-11T09:55:59;50.40;;;26.23;;
32872;SDS011;19224;52.462;16.898;2023-02-11T09:58:33;56.73;;;27.80;;
32872;SDS011;19224;52.462;16.898;2023-02-11T10:04:16;50.92;;;27.80;;
32872;SDS011;19224;52.462;16.898;2023-02-11T10:06:54;52.10;;;26.23;;
32872;SDS011;19224;52.462;16.898;2023-02-11T10:12:38;50.67;;;27.25;;
32872;SDS011;19224;52.462;16.898;2023-02-11T10:15:15;53.17;;;26.55;;
32872;SDS011;19224;52.462;16.898;2023-02-11T10:24:02;48.75;;;25.25;;
32872;SDS011;19224;52.462;16.898;2023-02-11T10:26:36;46.48;;;24.07;;
32872;SDS011;19224;52.462;16.898;2023-02-11T10:34:57;47.23;;;25.08;;
32872;SDS011;19224;52.462;16.898;2023-02-11T10:37:30;53.58;;;26.02;;
32872;SDS011;19224;52.462;16.898;2023-02-11T10:40:00;50.08;;;24.75;;
32872;SDS011;19224;52.462;16.898;2023-02-11T10:42:31;51.60;;;25.80;;
32872;SDS011;19224;52.462;16.898;2023-02-11T10:45:03;48.45;;;23.42;;
32872;SDS011;19224;52.462;16.898;2023-02-11T10:47:38;49.70;;;24.52;;
32872;SDS011;19224;52.462;16.898;2023-02-11T10:50:18;52.17;;;26.07;;
32872;SDS011;19224;52.462;16.898;2023-02-11T10:53:10;51.25;;;25.68;;
32872;SDS011;19224;52.462;16.898;2023-02-11T10:55:37;52.50;;;26.93;;
32872;SDS011;19224;52.462;16.898;2023-02-11T10:58:18;54.23;;;25.40;;
32872;SDS011;19224;52.462;16.898;2023-02-11T11:00:44;50.45;;;25.55;;
32872;SDS011;19224;52.462;16.898;2023-02-11T11:03:24;50.00;;;25.45;;
32872;SDS011;19224;52.462;16.898;2023-02-11T11:05:57;52.90;;;26.15;;
32872;SDS011;19224;52.462;16.898;2023-02-11T11:08:39;52.13;;;25.97;;
32872;SDS011;19224;52.462;16.898;2023-02-11T11:11:18;52.95;;;25.88;;
32872;SDS011;19224;52.462;16.898;2023-02-11T11:16:28;47.83;;;23.80;;
32872;SDS011;19224;52.462;16.898;2023-02-11T11:21:41;47.35;;;24.23;;
32872;SDS011;19224;52.462;16.898;2023-02-11T11:26:58;46.23;;;23.35;;
32872;SDS011;19224;52.462;16.898;2023-02-11T11:29:35;44.18;;;24.55;;
32872;SDS011;19224;52.462;16.898;2023-02-11T11:32:22;45.60;;;21.95;;
32872;SDS011;19224;52.462;16.898;2023-02-11T11:35:04;46.55;;;23.60;;
32872;SDS011;19224;52.462;16.898;2023-02-11T11:37:39;48.83;;;23.05;;
32872;SDS011;19224;52.462;16.898;2023-02-11T11:43:05;53.58;;;22.37;;
32872;SDS011;19224;52.462;16.898;2023-02-11T11:45:52;44.70;;;23.95;;
32872;SDS011;19224;52.462;16.898;2023-02-11T11:51:09;46.55;;;23.02;;
32872;SDS011;19224;52.462;16.898;2023-02-11T11:53:51;42.67;;;21.68;;
32872;SDS011;19224;52.462;16.898;2023-02-11T11:56:33;42.17;;;22.37;;
32872;SDS011;19224;52.462;16.898;2023-02-11T11:59:14;45.52;;;23.22;;
32872;SDS011;19224;52.462;16.898;2023-02-11T12:04:58;46.55;;;22.85;;
32872;SDS011;19224;52.462;16.898;2023-02-11T12:10:47;45.23;;;23.00;;
32872;SDS011;19224;52.462;16.898;2023-02-11T12:13:59;44.25;;;21.80;;
32872;SDS011;19224;52.462;16.898;2023-02-11T12:17:36;44.33;;;21.93;;
32872;SDS011;19224;52.462;16.898;2023-02-11T12:19:49;47.67;;;21.37;;
32872;SDS011;19224;52.462;16.898;2023-02-11T12:22:46;42.00;;;20.62;;
32872;SDS011;19224;52.462;16.898;2023-02-11T12:34:17;39.55;;;21.35;;
32872;SDS011;19224;52.462;16.898;2023-02-11T12:40:21;38.08;;;20.88;;
32872;SDS011;19224;52.462;16.898;2023-02-11T12:42:51;36.08;;;19.87;;
32872;SDS011;19224;52.462;16.898;2023-02-11T12:48:36;34.75;;;18.15;;
32872;SDS011;19224;52.462;16.898;2023-02-11T12:51:37;32.83;;;19.00;;
32872;SDS011;19224;52.462;16.898;2023-02-11T12:54:29;32.75;;;17.40;;
32872;SDS011;19224;52.462;16.898;2023-02-11T12:57:20;32.55;;;17.62;;
32872;SDS011;19224;52.462;16.898;2023-02-11T13:05:48;31.90;;;18.42;;
32872;SDS011;19224;52.462;16.898;2023-02-11T13:08:44;35.50;;;18.52;;
32872;SDS011;19224;52.462;16.898;2023-02-11T13:11:28;34.50;;;17.92;;
32872;SDS011;19224;52.462;16.898;2023-02-11T13:14:11;27.22;;;15.90;;
32872;SDS011;19224;52.462;16.898;2023-02-11T13:16:53;28.95;;;17.20;;
32872;SDS011;19224;52.462;16.898;2023-02-11T13:19:32;32.28;;;17.62;;
32872;SDS011;19224;52.462;16.898;2023-02-11T13:22:18;34.03;;;17.45;;
32872;SDS011;19224;52.462;16.898;2023-02-11T13:25:05;28.25;;;15.93;;
32872;SDS011;19224;52.462;16.898;2023-02-11T13:27:49;34.30;;;17.20;;
32872;SDS011;19224;52.462;16.898;2023-02-11T13:30:37;31.95;;;16.73;;
32872;SDS011;19224;52.462;16.898;2023-02-11T13:33:17;26.90;;;15.78;;
32872;SDS011;19224;52.462;16.898;2023-02-11T13:36:20;28.15;;;16.48;;
32872;SDS011;19224;52.462;16.898;2023-02-11T13:39:02;30.77;;;17.55;;
32872;SDS011;19224;52.462;16.898;2023-02-11T13:41:39;26.80;;;15.68;;
32872;SDS011;19224;52.462;16.898;2023-02-11T13:49:38;22.82;;;14.23;;
32872;SDS011;19224;52.462;16.898;2023-02-11T13:52:15;23.57;;;13.83;;
32872;SDS011;19224;52.462;16.898;2023-02-11T13:55:01;22.48;;;13.03;;
32872;SDS011;19224;52.462;16.898;2023-02-11T14:00:45;21.82;;;13.30;;
32872;SDS011;19224;52.462;16.898;2023-02-11T14:06:18;23.42;;;13.95;;
32872;SDS011;19224;52.462;16.898;2023-02-11T14:09:31;22.15;;;13.32;;
32872;SDS011;19224;52.462;16.898;2023-02-11T14:11:50;24.72;;;13.85;;
32872;SDS011;19224;52.462;16.898;2023-02-11T14:14:27;24.52;;;13.40;;
32872;SDS011;19224;52.462;16.898;2023-02-11T14:19:43;29.75;;;16.02;;
32872;SDS011;19224;52.462;16.898;2023-02-11T14:22:17;25.48;;;15.08;;
32872;SDS011;19224;52.462;16.898;2023-02-11T14:25:44;25.30;;;13.65;;
32872;SDS011;19224;52.462;16.898;2023-02-11T14:27:54;27.48;;;14.50;;
32872;SDS011;19224;52.462;16.898;2023-02-11T14:30:33;26.30;;;13.55;;
32872;SDS011;19224;52.462;16.898;2023-02-11T14:33:24;34.27;;;19.17;;
32872;SDS011;19224;52.462;16.898;2023-02-11T14:36:10;38.85;;;20.80;;
32872;SDS011;19224;52.462;16.898;2023-02-11T14:41:54;24.77;;;14.50;;
32872;SDS011;19224;52.462;16.898;2023-02-11T14:44:27;28.90;;;15.90;;
32872;SDS011;19224;52.462;16.898;2023-02-11T14:47:01;26.05;;;14.87;;
32872;SDS011;19224;52.462;16.898;2023-02-11T14:49:34;29.85;;;15.88;;
32872;SDS011;19224;52.462;16.898;2023-02-11T14:52:22;32.73;;;18.20;;
32872;SDS011;19224;52.462;16.898;2023-02-11T14:55:01;41.42;;;22.77;;
32872;SDS011;19224;52.462;16.898;2023-02-11T14:57:35;28.92;;;16.42;;
32872;SDS011;19224;52.462;16.898;2023-02-11T15:00:13;31.93;;;15.50;;
32872;SDS011;19224;52.462;16.898;2023-02-11T15:02:50;29.02;;;15.53;;
32872;SDS011;19224;52.462;16.898;2023-02-11T15:05:25;30.25;;;15.90;;
32872;SDS011;19224;52.462;16.898;2023-02-11T15:08:04;29.27;;;15.98;;
32872;SDS011;19224;52.462;16.898;2023-02-11T15:10:42;31.65;;;16.57;;
32872;SDS011;19224;52.462;16.898;2023-02-11T15:13:15;27.93;;;15.88;;
32872;SDS011;19224;52.462;16.898;2023-02-11T15:15:48;26.52;;;15.63;;
32872;SDS011;19224;52.462;16.898;2023-02-11T15:18:21;32.17;;;16.42;;
32872;SDS011;19224;52.462;16.898;2023-02-11T15:20:55;25.30;;;14.58;;
32872;SDS011;19224;52.462;16.898;2023-02-11T15:23:26;28.90;;;15.53;;
32872;SDS011;19224;52.462;16.898;2023-02-11T15:25:58;27.85;;;15.35;;
32872;SDS011;19224;52.462;16.898;2023-02-11T15:28:32;27.65;;;14.75;;
32872;SDS011;19224;52.462;16.898;2023-02-11T15:31:04;26.52;;;14.35;;
32872;SDS011;19224;52.462;16.898;2023-02-11T15:33:44;32.65;;;16.75;;
32872;SDS011;19224;52.462;16.898;2023-02-11T15:36:15;29.65;;;15.68;;
32872;SDS011;19224;52.462;16.898;2023-02-11T15:39:35;31.20;;;15.75;;
32872;SDS011;19224;52.462;16.898;2023-02-11T15:41:44;32.90;;;16.37;;
32872;SDS011;19224;52.462;16.898;2023-02-11T15:44:27;28.12;;;15.32;;
32872;SDS011;19224;52.462;16.898;2023-02-11T15:47:00;28.80;;;15.00;;
32872;SDS011;19224;52.462;16.898;2023-02-11T15:49:32;26.50;;;14.87;;
32872;SDS011;19224;52.462;16.898;2023-02-11T15:52:02;31.42;;;15.40;;
32872;SDS011;19224;52.462;16.898;2023-02-11T15:54:35;26.30;;;14.83;;
32872;SDS011;19224;52.462;16.898;2023-02-11T15:57:07;23.15;;;14.25;;
32872;SDS011;19224;52.462;16.898;2023-02-11T15:59:39;25.15;;;14.87;;
32872;SDS011;19224;52.462;16.898;2023-02-11T16:04:52;25.82;;;14.80;;
32872;SDS011;19224;52.462;16.898;2023-02-11T16:07:42;26.45;;;14.18;;
32872;SDS011;19224;52.462;16.898;2023-02-11T16:10:22;28.23;;;14.65;;
32872;SDS011;19224;52.462;16.898;2023-02-11T16:13:00;24.18;;;14.45;;
32872;SDS011;19224;52.462;16.898;2023-02-11T16:19:00;26.15;;;15.18;;
32872;SDS011;19224;52.462;16.898;2023-02-11T16:21:00;23.40;;;14.47;;
32872;SDS011;19224;52.462;16.898;2023-02-11T16:23:35;24.18;;;14.53;;
32872;SDS011;19224;52.462;16.898;2023-02-11T16:26:29;23.62;;;14.20;;
32872;SDS011;19224;52.462;16.898;2023-02-11T16:29:03;25.32;;;14.07;;
32872;SDS011;19224;52.462;16.898;2023-02-11T16:31:41;27.32;;;14.68;;
32872;SDS011;19224;52.462;16.898;2023-02-11T16:34:23;26.02;;;15.00;;
32872;SDS011;19224;52.462;16.898;2023-02-11T16:36:52;25.17;;;14.85;;
32872;SDS011;19224;52.462;16.898;2023-02-11T16:39:23;23.18;;;14.73;;
32872;SDS011;19224;52.462;16.898;2023-02-11T16:41:53;24.80;;;13.50;;
32872;SDS011;19224;52.462;16.898;2023-02-11T16:44:26;25.30;;;13.88;;
32872;SDS011;19224;52.462;16.898;2023-02-11T16:46:57;29.92;;;15.35;;
32872;SDS011;19224;52.462;16.898;2023-02-11T16:49:33;22.60;;;13.60;;
32872;SDS011;19224;52.462;16.898;2023-02-11T16:52:13;29.10;;;15.32;;